PWSweather.com
Personal Weather Stations
Station Observations
TARRYHILL
Tarrytown, NY 10591

Tarrytown, NY 10591

Lat: 41.05185, Lon: -73.85296

Elevation: 341

Station Type: Davis Vantage Vue

www.tarrytownnyweather.com

High Low Average
Temperature 90.1°F32.3°F 65.8°F18.8°F 76.6°F24.8°F
Dew Point 71.4°F21.9°F 64.3°F17.9°F 66.9°F19.4°F
Winds 4.6 mph SW7.4 mph SW Calm Calm 1.0 mph 1.6 mph
Wind Gusts 8.0 mph12.9 mph -- 2.0 mph3.2 mph
Humidity 96% 45% 74%
Pressure 30.06 in1017.90 in 29.90 in1012.50 in -
Precipitation 0.00 in0.00 in - -
Hour Temp Dew Point Humidity Winds Wind Gusts Pressure Precip Precip Rate Daily Precip Total
12:00 AM 70.7°F21.5°C 66.0°F18.9°C 85% Calm Calm -- 30.06 in1017.9 mb - 0.00 in0.0 mm 0.00 in0.0 mm
12:10 AM 70.2°F21.2°C 65.8°F18.8°C 86% Calm Calm -- 30.06 in1017.9 mb - 0.00 in0.0 mm 0.00 in0.0 mm
12:20 AM 69.8°F21.0°C 65.4°F18.6°C 86% Calm Calm -- 30.06 in1017.9 mb - 0.00 in0.0 mm 0.00 in0.0 mm
12:30 AM 69.8°F21.0°C 65.8°F18.8°C 87% Calm Calm -- 30.06 in1017.9 mb - 0.00 in0.0 mm 0.00 in0.0 mm
12:40 AM 69.4°F20.8°C 65.4°F18.6°C 87% Calm Calm -- 30.06 in1017.9 mb - 0.00 in0.0 mm 0.00 in0.0 mm
12:50 AM 69.2°F20.7°C 65.8°F18.8°C 89% Calm Calm -- 30.06 in1017.9 mb - 0.00 in0.0 mm 0.00 in0.0 mm
01:00 AM 69.1°F20.6°C 65.8°F18.8°C 89% Calm Calm -- 30.06 in1017.9 mb - 0.00 in0.0 mm 0.00 in0.0 mm
01:10 AM 68.8°F20.4°C 65.7°F18.7°C 90% Calm Calm -- 30.06 in1017.9 mb - 0.00 in0.0 mm 0.00 in0.0 mm
01:20 AM 69.1°F20.6°C 65.7°F18.7°C 89% Calm Calm -- 30.06 in1017.9 mb - 0.00 in0.0 mm 0.00 in0.0 mm
01:30 AM 69.7°F20.9°C 65.7°F18.7°C 87% Calm Calm -- 30.06 in1017.9 mb - 0.00 in0.0 mm 0.00 in0.0 mm
01:40 AM 70.0°F21.1°C 65.7°F18.7°C 86% Calm Calm -- 30.06 in1017.9 mb - 0.00 in0.0 mm 0.00 in0.0 mm
01:50 AM 69.8°F21.0°C 65.4°F18.6°C 86% Calm Calm -- 30.05 in1017.6 mb - 0.00 in0.0 mm 0.00 in0.0 mm
02:00 AM 69.3°F20.7°C 65.2°F18.4°C 87% Calm Calm -- 30.05 in1017.6 mb - 0.00 in0.0 mm 0.00 in0.0 mm
02:10 AM 68.8°F20.4°C 65.1°F18.4°C 88% Calm Calm -- 30.05 in1017.6 mb - 0.00 in0.0 mm 0.00 in0.0 mm
02:20 AM 68.6°F20.3°C 65.2°F18.4°C 89% Calm Calm -- 30.05 in1017.6 mb - 0.00 in0.0 mm 0.00 in0.0 mm
02:30 AM 68.3°F20.2°C 65.0°F18.3°C 89% Calm Calm -- 30.04 in1017.3 mb - 0.00 in0.0 mm 0.00 in0.0 mm
02:40 AM 68.2°F20.1°C 65.2°F18.4°C 90% Calm Calm -- 30.04 in1017.3 mb - 0.00 in0.0 mm 0.00 in0.0 mm
02:50 AM 67.8°F19.9°C 64.8°F18.2°C 90% Calm Calm -- 30.04 in1017.3 mb - 0.00 in0.0 mm 0.00 in0.0 mm
03:00 AM 67.5°F19.7°C 64.8°F18.2°C 91% Calm Calm -- 30.04 in1017.3 mb - 0.00 in0.0 mm 0.00 in0.0 mm
03:10 AM 67.4°F19.7°C 65.0°F18.3°C 92% Calm Calm -- 30.04 in1017.3 mb - 0.00 in0.0 mm 0.00 in0.0 mm
03:20 AM 67.5°F19.7°C 65.1°F18.4°C 92% Calm Calm -- 30.04 in1017.3 mb - 0.00 in0.0 mm 0.00 in0.0 mm
03:30 AM 67.6°F19.8°C 65.2°F18.4°C 92% Calm Calm -- 30.04 in1017.3 mb - 0.00 in0.0 mm 0.00 in0.0 mm
03:40 AM 67.8°F19.9°C 65.4°F18.6°C 92% Calm Calm -- 30.03 in1016.9 mb - 0.00 in0.0 mm 0.00 in0.0 mm
03:50 AM 67.9°F19.9°C 65.2°F18.4°C 91% Calm Calm -- 30.03 in1016.9 mb - 0.00 in0.0 mm 0.00 in0.0 mm
04:00 AM 67.5°F19.7°C 64.8°F18.2°C 91% Calm Calm -- 30.03 in1016.9 mb - 0.00 in0.0 mm 0.00 in0.0 mm
04:10 AM 67.2°F19.6°C 64.8°F18.2°C 92% Calm Calm -- 30.03 in1016.9 mb - 0.00 in0.0 mm 0.00 in0.0 mm
04:20 AM 67.3°F19.6°C 64.9°F18.3°C 92% Calm Calm -- 30.03 in1016.9 mb - 0.00 in0.0 mm 0.00 in0.0 mm
04:30 AM 67.0°F19.4°C 64.6°F18.1°C 92% Calm Calm -- 30.03 in1016.9 mb - 0.00 in0.0 mm 0.00 in0.0 mm
04:40 AM 66.7°F19.3°C 64.6°F18.1°C 93% Calm Calm -- 30.03 in1016.9 mb - 0.00 in0.0 mm 0.00 in0.0 mm
04:50 AM 66.5°F19.2°C 64.4°F18.0°C 93% Calm Calm -- 30.02 in1016.6 mb - 0.00 in0.0 mm 0.00 in0.0 mm
05:00 AM 66.9°F19.4°C 64.8°F18.2°C 93% Calm Calm -- 30.02 in1016.6 mb - 0.00 in0.0 mm 0.00 in0.0 mm
05:10 AM 66.5°F19.2°C 64.4°F18.0°C 93% Calm Calm -- 30.02 in1016.6 mb - 0.00 in0.0 mm 0.00 in0.0 mm
05:20 AM 66.3°F19.1°C 64.5°F18.1°C 94% Calm Calm -- 30.02 in1016.6 mb - 0.00 in0.0 mm 0.00 in0.0 mm
05:30 AM 66.4°F19.1°C 64.6°F18.1°C 94% Calm Calm -- 30.03 in1016.9 mb - 0.00 in0.0 mm 0.00 in0.0 mm
05:40 AM 66.5°F19.2°C 64.7°F18.2°C 94% Calm Calm -- 30.03 in1016.9 mb - 0.00 in0.0 mm 0.00 in0.0 mm
05:50 AM 66.2°F19.0°C 64.4°F18.0°C 94% Calm Calm -- 30.03 in1016.9 mb - 0.00 in0.0 mm 0.00 in0.0 mm
06:00 AM 66.5°F19.2°C 65.0°F18.3°C 95% Calm Calm -- 30.03 in1016.9 mb - 0.00 in0.0 mm 0.00 in0.0 mm
06:11 AM 66.3°F19.1°C 64.5°F18.1°C 94% Calm Calm -- 30.03 in1016.9 mb - 0.00 in0.0 mm 0.00 in0.0 mm
06:21 AM 65.9°F18.8°C 64.4°F18.0°C 95% Calm Calm -- 30.03 in1016.9 mb - 0.00 in0.0 mm 0.00 in0.0 mm
06:31 AM 66.2°F19.0°C 64.7°F18.2°C 95% Calm Calm -- 30.03 in1016.9 mb - 0.00 in0.0 mm 0.00 in0.0 mm
06:41 AM 66.0°F18.9°C 64.5°F18.1°C 95% Calm Calm -- 30.03 in1016.9 mb - 0.00 in0.0 mm 0.00 in0.0 mm
06:51 AM 65.8°F18.8°C 64.3°F17.9°C 95% Calm Calm -- 30.04 in1017.3 mb - 0.00 in0.0 mm 0.00 in0.0 mm
07:01 AM 66.2°F19.0°C 65.0°F18.3°C 96% Calm Calm -- 30.04 in1017.3 mb - 0.00 in0.0 mm 0.00 in0.0 mm
07:11 AM 66.7°F19.3°C 65.5°F18.6°C 96% Calm Calm -- 30.04 in1017.3 mb - 0.00 in0.0 mm 0.00 in0.0 mm
07:21 AM 66.7°F19.3°C 65.5°F18.6°C 96% Calm Calm -- 30.04 in1017.3 mb - 0.00 in0.0 mm 0.00 in0.0 mm
07:31 AM 66.9°F19.4°C 65.7°F18.7°C 96% Calm Calm -- 30.04 in1017.3 mb - 0.00 in0.0 mm 0.00 in0.0 mm
07:41 AM 67.5°F19.7°C 66.3°F19.1°C 96% Calm Calm -- 30.04 in1017.3 mb - 0.00 in0.0 mm 0.00 in0.0 mm
07:51 AM 68.3°F20.2°C 66.8°F19.3°C 95% Calm Calm -- 30.04 in1017.3 mb - 0.00 in0.0 mm 0.00 in0.0 mm
08:01 AM 69.0°F20.6°C 66.9°F19.4°C 93% 0.2 mph SSW0.3 kmh SSW 2.0 mph3.2 kmh 30.04 in1017.3 mb - 0.00 in0.0 mm 0.00 in0.0 mm
08:11 AM 69.6°F20.9°C 67.2°F19.6°C 92% 0.6 mph SW1.0 kmh SW 1.0 mph1.6 kmh 30.04 in1017.3 mb - 0.00 in0.0 mm 0.00 in0.0 mm
08:21 AM 70.2°F21.2°C 67.5°F19.7°C 91% 1.3 mph SW2.1 kmh SW 2.0 mph3.2 kmh 30.04 in1017.3 mb - 0.00 in0.0 mm 0.00 in0.0 mm
08:32 AM 70.8°F21.6°C 67.4°F19.7°C 89% 1.5 mph SSE2.4 kmh SSE 2.0 mph3.2 kmh 30.04 in1017.3 mb - 0.00 in0.0 mm 0.00 in0.0 mm
08:41 AM 72.0°F22.2°C 67.9°F19.9°C 87% 0.4 mph SSW0.6 kmh SSW 1.0 mph1.6 kmh 30.04 in1017.3 mb - 0.00 in0.0 mm 0.00 in0.0 mm
08:51 AM 73.1°F22.8°C 68.0°F20.0°C 84% 0.4 mph S0.6 kmh S 1.0 mph1.6 kmh 30.04 in1017.3 mb - 0.00 in0.0 mm 0.00 in0.0 mm
09:01 AM 73.5°F23.1°C 67.3°F19.6°C 81% 1.4 mph S2.3 kmh S 3.0 mph4.8 kmh 30.04 in1017.3 mb - 0.00 in0.0 mm 0.00 in0.0 mm
09:11 AM 74.3°F23.5°C 67.7°F19.8°C 80% 1.8 mph SW2.9 kmh SW 3.0 mph4.8 kmh 30.04 in1017.3 mb - 0.00 in0.0 mm 0.00 in0.0 mm
09:21 AM 74.8°F23.8°C 68.2°F20.1°C 80% 0.2 mph SE0.3 kmh SE 1.0 mph1.6 kmh 30.04 in1017.3 mb - 0.00 in0.0 mm 0.00 in0.0 mm
09:32 AM 75.8°F24.3°C 68.4°F20.2°C 78% 0.7 mph SSW1.1 kmh SSW 4.0 mph6.4 kmh 30.04 in1017.3 mb - 0.00 in0.0 mm 0.00 in0.0 mm
09:41 AM 76.6°F24.8°C 68.4°F20.2°C 76% 2.1 mph SE3.4 kmh SE 2.0 mph3.2 kmh 30.03 in1016.9 mb - 0.00 in0.0 mm 0.00 in0.0 mm
09:51 AM 77.7°F25.4°C 67.9°F19.9°C 72% 4.6 mph SW7.4 kmh SW 7.0 mph11.3 kmh 30.03 in1016.9 mb - 0.00 in0.0 mm 0.00 in0.0 mm
10:02 AM 77.9°F25.5°C 68.1°F20.1°C 72% 3.5 mph SSW5.6 kmh SSW 4.0 mph6.4 kmh 30.03 in1016.9 mb - 0.00 in0.0 mm 0.00 in0.0 mm
10:11 AM 79.0°F26.1°C 68.8°F20.4°C 71% 0.9 mph WSW1.4 kmh WSW 7.0 mph11.3 kmh 30.03 in1016.9 mb - 0.00 in0.0 mm 0.00 in0.0 mm
10:21 AM 80.3°F26.8°C 69.2°F20.7°C 69% 1.1 mph S1.8 kmh S 2.0 mph3.2 kmh 30.03 in1016.9 mb - 0.00 in0.0 mm 0.00 in0.0 mm
10:32 AM 81.1°F27.3°C 69.6°F20.9°C 68% 2.6 mph S4.2 kmh S 4.0 mph6.4 kmh 30.03 in1016.9 mb - 0.00 in0.0 mm 0.00 in0.0 mm
10:41 AM 81.7°F27.6°C 70.1°F21.2°C 68% 1.0 mph WSW1.6 kmh WSW 2.0 mph3.2 kmh 30.03 in1016.9 mb - 0.00 in0.0 mm 0.00 in0.0 mm
10:51 AM 81.5°F27.5°C 69.0°F20.6°C 66% 3.1 mph WSW5.0 kmh WSW 5.0 mph8.0 kmh 30.03 in1016.9 mb - 0.00 in0.0 mm 0.00 in0.0 mm
11:02 AM 81.9°F27.7°C 69.4°F20.8°C 66% 2.4 mph S3.9 kmh S 4.0 mph6.4 kmh 30.02 in1016.6 mb - 0.00 in0.0 mm 0.00 in0.0 mm
11:11 AM 82.0°F27.8°C 68.7°F20.4°C 64% 1.7 mph SW2.7 kmh SW 1.0 mph1.6 kmh 30.02 in1016.6 mb - 0.00 in0.0 mm 0.00 in0.0 mm
11:21 AM 83.2°F28.4°C 69.3°F20.7°C 63% 3.0 mph WSW4.8 kmh WSW 5.0 mph8.0 kmh 30.02 in1016.6 mb - 0.00 in0.0 mm 0.00 in0.0 mm
11:32 AM 83.7°F28.7°C 69.3°F20.7°C 62% 2.6 mph SSE4.2 kmh SSE 3.0 mph4.8 kmh 30.01 in1016.3 mb - 0.00 in0.0 mm 0.00 in0.0 mm
11:41 AM 84.0°F28.9°C 68.6°F20.3°C 60% 2.2 mph SW3.5 kmh SW 3.0 mph4.8 kmh 30.01 in1016.3 mb - 0.00 in0.0 mm 0.00 in0.0 mm
11:51 AM 84.2°F29.0°C 69.3°F20.7°C 61% 3.1 mph SE5.0 kmh SE 4.0 mph6.4 kmh 30.00 in1015.9 mb - 0.00 in0.0 mm 0.00 in0.0 mm
12:02 PM 84.9°F29.4°C 68.9°F20.5°C 59% 1.8 mph WSW2.9 kmh WSW 3.0 mph4.8 kmh 30.00 in1015.9 mb - 0.00 in0.0 mm 0.00 in0.0 mm
12:11 PM 85.6°F29.8°C 69.1°F20.6°C 58% 3.1 mph SW5.0 kmh SW 4.0 mph6.4 kmh 29.99 in1015.6 mb - 0.00 in0.0 mm 0.00 in0.0 mm
12:21 PM 85.2°F29.6°C 67.7°F19.8°C 56% 0.4 mph WSW0.6 kmh WSW 2.0 mph3.2 kmh 29.99 in1015.6 mb - 0.00 in0.0 mm 0.00 in0.0 mm
12:32 PM 85.8°F29.9°C 67.2°F19.6°C 54% 0.1 mph W0.2 kmh W 1.0 mph1.6 kmh 29.99 in1015.6 mb - 0.00 in0.0 mm 0.00 in0.0 mm
12:41 PM 86.7°F30.4°C 67.5°F19.7°C 53% 0.9 mph SW1.4 kmh SW 3.0 mph4.8 kmh 29.98 in1015.2 mb - 0.00 in0.0 mm 0.00 in0.0 mm
12:51 PM 87.0°F30.6°C 67.8°F19.9°C 53% 4.0 mph SW6.4 kmh SW 7.0 mph11.3 kmh 29.98 in1015.2 mb - 0.00 in0.0 mm 0.00 in0.0 mm
01:02 PM 87.4°F30.8°C 67.1°F19.5°C 51% 2.4 mph WNW3.9 kmh WNW 5.0 mph8.0 kmh 29.98 in1015.2 mb - 0.00 in0.0 mm 0.00 in0.0 mm
01:11 PM 86.7°F30.4°C 67.0°F19.4°C 52% 0.3 mph NE0.5 kmh NE 2.0 mph3.2 kmh 29.97 in1014.9 mb - 0.00 in0.0 mm 0.00 in0.0 mm
01:21 PM 87.6°F30.9°C 68.4°F20.2°C 53% 1.8 mph WSW2.9 kmh WSW 7.0 mph11.3 kmh 29.97 in1014.9 mb - 0.00 in0.0 mm 0.00 in0.0 mm
01:32 PM 86.7°F30.4°C 66.4°F19.1°C 51% 1.8 mph SW2.9 kmh SW 4.0 mph6.4 kmh 29.96 in1014.6 mb - 0.00 in0.0 mm 0.00 in0.0 mm
01:41 PM 88.3°F31.3°C 67.9°F19.9°C 51% 3.1 mph WSW5.0 kmh WSW 8.0 mph12.9 kmh 29.96 in1014.6 mb - 0.00 in0.0 mm 0.00 in0.0 mm
01:51 PM 88.7°F31.5°C 67.1°F19.5°C 49% 0.8 mph NW1.3 kmh NW 2.0 mph3.2 kmh 29.96 in1014.6 mb - 0.00 in0.0 mm 0.00 in0.0 mm
02:02 PM 87.9°F31.1°C 67.0°F19.4°C 50% 0.2 mph WNW0.3 kmh WNW 2.0 mph3.2 kmh 29.96 in1014.6 mb - 0.00 in0.0 mm 0.00 in0.0 mm
02:11 PM 88.6°F31.4°C 67.6°F19.8°C 50% 1.6 mph W2.6 kmh W 4.0 mph6.4 kmh 29.95 in1014.2 mb - 0.00 in0.0 mm 0.00 in0.0 mm
02:21 PM 88.2°F31.2°C 66.6°F19.2°C 49% 4.4 mph SW7.1 kmh SW 6.0 mph9.7 kmh 29.95 in1014.2 mb - 0.00 in0.0 mm 0.00 in0.0 mm
02:32 PM 89.0°F31.7°C 66.2°F19.0°C 47% 2.4 mph SW3.9 kmh SW 4.0 mph6.4 kmh 29.95 in1014.2 mb - 0.00 in0.0 mm 0.00 in0.0 mm
02:41 PM 88.7°F31.5°C 66.5°F19.2°C 48% 1.4 mph W2.3 kmh W 4.0 mph6.4 kmh 29.94 in1013.9 mb - 0.00 in0.0 mm 0.00 in0.0 mm
02:51 PM 89.1°F31.7°C 65.6°F18.7°C 46% 3.9 mph SW6.3 kmh SW 5.0 mph8.0 kmh 29.94 in1013.9 mb - 0.00 in0.0 mm 0.00 in0.0 mm
03:02 PM 89.7°F32.1°C 66.2°F19.0°C 46% 1.8 mph SW2.9 kmh SW 4.0 mph6.4 kmh 29.94 in1013.9 mb - 0.00 in0.0 mm 0.00 in0.0 mm
03:11 PM 90.1°F32.3°C 65.9°F18.8°C 45% 3.0 mph NW4.8 kmh NW 6.0 mph9.7 kmh 29.93 in1013.5 mb - 0.00 in0.0 mm 0.00 in0.0 mm
03:21 PM 89.1°F31.7°C 65.6°F18.7°C 46% 1.4 mph NNW2.3 kmh NNW 3.0 mph4.8 kmh 29.93 in1013.5 mb - 0.00 in0.0 mm 0.00 in0.0 mm
03:32 PM 88.5°F31.4°C 66.9°F19.4°C 49% 0.9 mph SW1.4 kmh SW 2.0 mph3.2 kmh 29.93 in1013.5 mb - 0.00 in0.0 mm 0.00 in0.0 mm
03:41 PM 87.5°F30.8°C 70.4°F21.3°C 57% 4.1 mph ESE6.6 kmh ESE 6.0 mph9.7 kmh 29.92 in1013.2 mb - 0.00 in0.0 mm 0.00 in0.0 mm
03:51 PM 88.0°F31.1°C 71.4°F21.9°C 58% 3.6 mph SW5.8 kmh SW 6.0 mph9.7 kmh 29.92 in1013.2 mb - 0.00 in0.0 mm 0.00 in0.0 mm
04:02 PM 87.1°F30.6°C 71.0°F21.7°C 59% 2.8 mph WSW4.5 kmh WSW 6.0 mph9.7 kmh 29.92 in1013.2 mb - 0.00 in0.0 mm 0.00 in0.0 mm
04:11 PM 87.2°F30.7°C 70.6°F21.4°C 58% 2.0 mph SW3.2 kmh SW 5.0 mph8.0 kmh 29.92 in1013.2 mb - 0.00 in0.0 mm 0.00 in0.0 mm
04:21 PM 87.5°F30.8°C 70.4°F21.3°C 57% 4.6 mph ESE7.4 kmh ESE 8.0 mph12.9 kmh 29.92 in1013.2 mb - 0.00 in0.0 mm 0.00 in0.0 mm
04:32 PM 87.1°F30.6°C 70.5°F21.4°C 58% 3.9 mph WSW6.3 kmh WSW 8.0 mph12.9 kmh 29.91 in1012.9 mb - 0.00 in0.0 mm 0.00 in0.0 mm
04:41 PM 87.3°F30.7°C 70.2°F21.2°C 57% 3.2 mph W5.1 kmh W 6.0 mph9.7 kmh 29.91 in1012.9 mb - 0.00 in0.0 mm 0.00 in0.0 mm
04:51 PM 87.3°F30.7°C 70.2°F21.2°C 57% 2.3 mph SW3.7 kmh SW 5.0 mph8.0 kmh 29.91 in1012.9 mb - 0.00 in0.0 mm 0.00 in0.0 mm
05:02 PM 87.6°F30.9°C 70.0°F21.1°C 56% 2.0 mph W3.2 kmh W 3.0 mph4.8 kmh 29.91 in1012.9 mb - 0.00 in0.0 mm 0.00 in0.0 mm
05:11 PM 87.1°F30.6°C 69.5°F20.8°C 56% 2.2 mph SW3.5 kmh SW 4.0 mph6.4 kmh 29.91 in1012.9 mb - 0.00 in0.0 mm 0.00 in0.0 mm
05:21 PM 86.6°F30.3°C 69.0°F20.6°C 56% 2.6 mph WSW4.2 kmh WSW 6.0 mph9.7 kmh 29.90 in1012.5 mb - 0.00 in0.0 mm 0.00 in0.0 mm
05:32 PM 86.2°F30.1°C 68.7°F20.4°C 56% 1.8 mph SSW2.9 kmh SSW 3.0 mph4.8 kmh 29.90 in1012.5 mb - 0.00 in0.0 mm 0.00 in0.0 mm
05:41 PM 85.8°F29.9°C 68.8°F20.4°C 57% 1.8 mph S2.9 kmh S 5.0 mph8.0 kmh 29.91 in1012.9 mb - 0.00 in0.0 mm 0.00 in0.0 mm
05:51 PM 85.7°F29.8°C 68.7°F20.4°C 57% 2.0 mph SE3.2 kmh SE 5.0 mph8.0 kmh 29.91 in1012.9 mb - 0.00 in0.0 mm 0.00 in0.0 mm
06:02 PM 85.4°F29.7°C 67.9°F19.9°C 56% 1.4 mph S2.3 kmh S 5.0 mph8.0 kmh 29.91 in1012.9 mb - 0.00 in0.0 mm 0.00 in0.0 mm
06:11 PM 84.7°F29.3°C 67.7°F19.8°C 57% 2.8 mph SW4.5 kmh SW 6.0 mph9.7 kmh 29.91 in1012.9 mb - 0.00 in0.0 mm 0.00 in0.0 mm
06:21 PM 84.1°F28.9°C 67.7°F19.8°C 58% 1.5 mph SSE2.4 kmh SSE 5.0 mph8.0 kmh 29.91 in1012.9 mb - 0.00 in0.0 mm 0.00 in0.0 mm
06:32 PM 83.7°F28.7°C 67.4°F19.7°C 58% 1.3 mph WSW2.1 kmh WSW 2.0 mph3.2 kmh 29.90 in1012.5 mb - 0.00 in0.0 mm 0.00 in0.0 mm
06:41 PM 83.0°F28.3°C 67.2°F19.6°C 59% 3.0 mph S4.8 kmh S 4.0 mph6.4 kmh 29.91 in1012.9 mb - 0.00 in0.0 mm 0.00 in0.0 mm
06:51 PM 82.5°F28.1°C 67.2°F19.6°C 60% 1.7 mph S2.7 kmh S 5.0 mph8.0 kmh 29.90 in1012.5 mb - 0.00 in0.0 mm 0.00 in0.0 mm
07:02 PM 81.4°F27.4°C 66.7°F19.3°C 61% 3.6 mph SE5.8 kmh SE 4.0 mph6.4 kmh 29.91 in1012.9 mb - 0.00 in0.0 mm 0.00 in0.0 mm
07:11 PM 80.7°F27.1°C 66.9°F19.4°C 63% 2.1 mph E3.4 kmh E 2.0 mph3.2 kmh 29.91 in1012.9 mb - 0.00 in0.0 mm 0.00 in0.0 mm
07:21 PM 80.1°F26.7°C 66.8°F19.3°C 64% 1.0 mph SW1.6 kmh SW 3.0 mph4.8 kmh 29.90 in1012.5 mb - 0.00 in0.0 mm 0.00 in0.0 mm
07:31 PM 79.4°F26.3°C 66.6°F19.2°C 65% 1.0 mph S1.6 kmh S 1.0 mph1.6 kmh 29.90 in1012.5 mb - 0.00 in0.0 mm 0.00 in0.0 mm
07:40 PM 78.8°F26.0°C 66.0°F18.9°C 65% 0.5 mph WSW0.8 kmh WSW 2.0 mph3.2 kmh 29.90 in1012.5 mb - 0.00 in0.0 mm 0.00 in0.0 mm
07:50 PM 78.3°F25.7°C 66.0°F18.9°C 66% 2.2 mph W3.5 kmh W 4.0 mph6.4 kmh 29.90 in1012.5 mb - 0.00 in0.0 mm 0.00 in0.0 mm
08:00 PM 77.8°F25.4°C 65.6°F18.7°C 66% 0.1 mph SSE0.2 kmh SSE 1.0 mph1.6 kmh 29.90 in1012.5 mb - 0.00 in0.0 mm 0.00 in0.0 mm
08:10 PM 77.5°F25.3°C 65.6°F18.7°C 67% 1.2 mph SW1.9 kmh SW 4.0 mph6.4 kmh 29.90 in1012.5 mb - 0.00 in0.0 mm 0.00 in0.0 mm
08:20 PM 77.2°F25.1°C 65.8°F18.8°C 68% 1.0 mph SE1.6 kmh SE 3.0 mph4.8 kmh 29.90 in1012.5 mb - 0.00 in0.0 mm 0.00 in0.0 mm
08:30 PM 76.9°F24.9°C 65.5°F18.6°C 68% 0.8 mph NE1.3 kmh NE 2.0 mph3.2 kmh 29.90 in1012.5 mb - 0.00 in0.0 mm 0.00 in0.0 mm
08:40 PM 76.6°F24.8°C 65.7°F18.7°C 69% 0.3 mph WSW0.5 kmh WSW 1.0 mph1.6 kmh 29.90 in1012.5 mb - 0.00 in0.0 mm 0.00 in0.0 mm
08:50 PM 76.3°F24.6°C 65.8°F18.8°C 70% Calm Calm -- 29.90 in1012.5 mb - 0.00 in0.0 mm 0.00 in0.0 mm
09:00 PM 76.1°F24.5°C 66.0°F18.9°C 71% Calm Calm -- 29.90 in1012.5 mb - 0.00 in0.0 mm 0.00 in0.0 mm
09:10 PM 75.9°F24.4°C 66.2°F19.0°C 72% 0.1 mph NE0.2 kmh NE 1.0 mph1.6 kmh 29.90 in1012.5 mb - 0.00 in0.0 mm 0.00 in0.0 mm
09:20 PM 75.7°F24.3°C 66.4°F19.1°C 73% Calm Calm 1.0 mph1.6 kmh 29.91 in1012.9 mb - 0.00 in0.0 mm 0.00 in0.0 mm
09:30 PM 75.5°F24.2°C 66.6°F19.2°C 74% Calm Calm -- 29.91 in1012.9 mb - 0.00 in0.0 mm 0.00 in0.0 mm
09:40 PM 75.4°F24.1°C 66.9°F19.4°C 75% Calm Calm -- 29.91 in1012.9 mb - 0.00 in0.0 mm 0.00 in0.0 mm
09:50 PM 75.0°F23.9°C 66.9°F19.4°C 76% Calm Calm -- 29.90 in1012.5 mb - 0.00 in0.0 mm 0.00 in0.0 mm
10:00 PM 74.7°F23.7°C 67.0°F19.4°C 77% Calm Calm 1.0 mph1.6 kmh 29.91 in1012.9 mb - 0.00 in0.0 mm 0.00 in0.0 mm
10:10 PM 74.4°F23.6°C 67.1°F19.5°C 78% Calm Calm -- 29.91 in1012.9 mb - 0.00 in0.0 mm 0.00 in0.0 mm
10:20 PM 74.3°F23.5°C 67.4°F19.7°C 79% Calm Calm -- 29.90 in1012.5 mb - 0.00 in0.0 mm 0.00 in0.0 mm
10:30 PM 73.9°F23.3°C 67.3°F19.6°C 80% Calm Calm -- 29.91 in1012.9 mb - 0.00 in0.0 mm 0.00 in0.0 mm
10:40 PM 73.7°F23.2°C 67.5°F19.7°C 81% Calm Calm -- 29.90 in1012.5 mb - 0.00 in0.0 mm 0.00 in0.0 mm
10:50 PM 73.6°F23.1°C 67.4°F19.7°C 81% Calm Calm -- 29.91 in1012.9 mb - 0.00 in0.0 mm 0.00 in0.0 mm
11:00 PM 73.0°F22.8°C 67.1°F19.5°C 82% Calm Calm -- 29.91 in1012.9 mb - 0.00 in0.0 mm 0.00 in0.0 mm
11:10 PM 72.8°F22.7°C 67.7°F19.8°C 84% Calm Calm -- 29.91 in1012.9 mb - 0.00 in0.0 mm 0.00 in0.0 mm
11:20 PM 73.2°F22.9°C 68.4°F20.2°C 85% Calm Calm -- 29.90 in1012.5 mb - 0.00 in0.0 mm 0.00 in0.0 mm
11:30 PM 73.0°F22.8°C 68.2°F20.1°C 85% Calm Calm -- 29.90 in1012.5 mb - 0.00 in0.0 mm 0.00 in0.0 mm
11:40 PM 72.6°F22.6°C 68.2°F20.1°C 86% Calm Calm -- 29.90 in1012.5 mb - 0.00 in0.0 mm 0.00 in0.0 mm
11:50 PM 72.4°F22.4°C 68.3°F20.2°C 87% Calm Calm -- 29.90 in1012.5 mb - 0.00 in0.0 mm 0.00 in0.0 mm